Time;durP1;ratioP1;P1;durP2;ratioP2;P2;SDS_P1;SDS_P2;PMS_P1;PMS_P2;Temp;Humidity;BMP_temperature;BMP_pressure;BME280_temperature;BME280_humidity;BME280_pressure;Samples;Min_cycle;Max_cycle;Signal;HPM_P1;HPM_P2
2022/09/02 00:01:42;;;;;;;2.55;0.50;;;25.10;34.80;;;;;;5022439;28;20096;-51
2022/09/02 00:04:12;;;;;;;0.30;0.30;;;25.10;34.90;;;;;;5025045;28;20465;-50
2022/09/02 00:06:40;;;;;;;0.80;0.45;;;25.10;35.00;;;;;;5025085;28;20445;-51
2022/09/02 00:09:08;;;;;;;0.90;0.50;;;25.10;34.90;;;;;;5017222;28;20032;-52
2022/09/02 00:11:36;;;;;;;0.93;0.50;;;25.10;35.00;;;;;;5024121;28;20452;-49
2022/09/02 00:14:06;;;;;;;1.02;0.50;;;25.10;34.90;;;;;;5024751;28;20025;-48
2022/09/02 00:16:33;;;;;;;0.82;0.50;;;25.10;34.90;;;;;;5024225;28;20405;-52
2022/09/02 00:19:01;;;;;;;0.77;0.50;;;25.10;34.90;;;;;;5023895;28;20087;-52
2022/09/02 00:21:28;;;;;;;1.30;0.65;;;25.10;34.90;;;;;;5028495;28;20080;-47
2022/09/02 00:23:54;;;;;;;0.65;0.50;;;25.10;34.90;;;;;;5024789;28;20191;-51
2022/09/02 00:26:20;;;;;;;1.02;0.40;;;25.10;34.80;;;;;;5024715;28;20120;-49
2022/09/02 00:28:46;;;;;;;0.45;0.40;;;25.10;34.80;;;;;;5025714;28;20075;-51
2022/09/02 00:31:13;;;;;;;0.50;0.40;;;25.10;34.80;;;;;;5022257;28;20017;-52
2022/09/02 00:33:39;;;;;;;0.82;0.40;;;25.00;34.80;;;;;;5023667;28;20087;-51
2022/09/02 00:36:05;;;;;;;0.55;0.40;;;25.00;34.80;;;;;;5022854;28;20212;-51
2022/09/02 00:38:34;;;;;;;0.30;0.30;;;25.10;34.80;;;;;;5023670;28;20453;-51
2022/09/02 00:41:03;;;;;;;0.57;0.30;;;25.10;34.80;;;;;;5025244;28;20037;-52
2022/09/02 00:43:43;;;;;;;0.75;0.40;;;25.00;34.80;;;;;;5024568;28;20350;-49
2022/09/02 00:46:10;;;;;;;1.13;0.65;;;25.00;34.70;;;;;;5023985;28;20364;-50
2022/09/02 00:48:40;;;;;;;0.80;0.40;;;25.00;34.90;;;;;;5023638;28;20030;-50
2022/09/02 00:51:08;;;;;;;0.93;0.30;;;25.00;34.90;;;;;;5022446;28;20087;-49
2022/09/02 00:53:38;;;;;;;0.90;0.63;;;25.00;35.00;;;;;;5021817;28;20025;-50
2022/09/02 00:56:07;;;;;;;1.13;0.40;;;25.00;35.00;;;;;;5023301;28;20052;-51
2022/09/02 00:58:35;;;;;;;0.55;0.30;;;25.00;34.90;;;;;;5023513;28;20026;-54
2022/09/02 01:01:02;;;;;;;0.60;0.35;;;25.00;34.90;;;;;;5026746;28;20075;-51
2022/09/02 01:03:31;;;;;;;0.68;0.47;;;25.00;34.90;;;;;;5023772;28;20033;-50
2022/09/02 01:05:58;;;;;;;0.60;0.30;;;25.00;34.90;;;;;;5022407;28;20022;-49
2022/09/02 01:08:29;;;;;;;0.68;0.40;;;25.00;35.50;;;;;;5008993;28;20034;-52
2022/09/02 01:10:56;;;;;;;0.55;0.30;;;25.00;34.90;;;;;;5021919;28;20135;-48
2022/09/02 01:13:25;;;;;;;0.50;0.40;;;25.00;34.90;;;;;;5025724;28;20337;-50
2022/09/02 01:16:19;;;;;;;0.55;0.30;;;25.00;34.90;;;;;;5022603;28;20033;-53
2022/09/02 01:18:49;;;;;;;0.77;0.40;;;25.00;34.90;;;;;;5020309;28;20046;-51
2022/09/02 01:21:16;;;;;;;0.40;0.40;;;24.90;34.80;;;;;;5022313;28;20022;-54
2022/09/02 01:23:42;;;;;;;1.02;0.43;;;24.90;34.80;;;;;;5022988;28;20080;-50
2022/09/02 01:26:08;;;;;;;0.90;0.30;;;24.90;34.80;;;;;;5023522;28;20073;-53
2022/09/02 01:28:34;;;;;;;0.73;0.50;;;24.90;34.80;;;;;;5022032;28;20037;-51
2022/09/02 01:31:00;;;;;;;0.35;0.32;;;24.90;34.80;;;;;;5024413;28;20038;-55
2022/09/02 01:33:27;;;;;;;2.20;0.45;;;24.90;34.80;;;;;;5022262;28;20088;-52
2022/09/02 01:35:53;;;;;;;0.47;0.30;;;24.90;34.80;;;;;;5028633;28;20546;-50
2022/09/02 01:38:20;;;;;;;0.40;0.30;;;24.90;34.80;;;;;;5023124;28;20113;-54
2022/09/02 01:40:46;;;;;;;0.50;0.40;;;24.80;34.70;;;;;;5021783;28;20061;-49
2022/09/02 01:43:17;;;;;;;0.45;0.30;;;24.90;34.80;;;;;;5020526;28;20037;-50
2022/09/02 01:45:49;;;;;;;0.82;0.20;;;24.90;34.80;;;;;;5022439;28;20029;-53
2022/09/02 01:48:15;;;;;;;0.40;0.20;;;24.80;34.70;;;;;;5021757;28;20108;-48
2022/09/02 01:50:44;;;;;;;0.73;0.30;;;24.80;34.70;;;;;;5020037;28;20064;-52
2022/09/02 01:53:10;;;;;;;0.35;0.30;;;24.80;34.70;;;;;;5022422;28;20397;-49
2022/09/02 01:55:36;;;;;;;0.30;0.30;;;24.80;34.70;;;;;;5019755;28;20029;-47
2022/09/02 01:58:02;;;;;;;0.52;0.40;;;24.80;34.70;;;;;;5022232;28;20033;-52
2022/09/02 02:00:28;;;;;;;0.50;0.43;;;24.80;34.70;;;;;;5020788;28;20022;-51
2022/09/02 02:02:54;;;;;;;0.32;0.30;;;24.80;34.70;;;;;;5024086;28;20022;-49
2022/09/02 02:05:20;;;;;;;0.70;0.40;;;24.80;34.70;;;;;;5020838;28;20068;-55
2022/09/02 02:07:49;;;;;;;0.75;0.30;;;24.80;34.70;;;;;;5022954;28;20037;-50
2022/09/02 02:10:17;;;;;;;0.98;0.22;;;24.80;34.70;;;;;;5023282;28;20088;-50
2022/09/02 02:12:43;;;;;;;1.17;0.30;;;24.80;34.70;;;;;;5022799;28;20128;-52
2022/09/02 02:15:14;;;;;;;0.68;0.30;;;24.80;34.70;;;;;;5021975;28;20124;-50
2022/09/02 02:17:39;;;;;;;0.93;0.30;;;24.80;34.70;;;;;;5021771;28;20030;-54
2022/09/02 02:20:08;;;;;;;0.50;0.30;;;24.80;34.70;;;;;;5022832;28;20036;-50
2022/09/02 02:22:35;;;;;;;0.45;0.30;;;24.80;34.70;;;;;;5018723;28;20122;-49
2022/09/02 02:25:00;;;;;;;0.55;0.28;;;24.80;34.70;;;;;;5028117;28;20497;-53
2022/09/02 02:27:28;;;;;;;0.57;0.30;;;24.80;34.70;;;;;;5021183;28;20500;-52
2022/09/02 02:29:54;;;;;;;0.55;0.20;;;24.80;34.70;;;;;;5021486;28;20427;-54
2022/09/02 02:32:21;;;;;;;0.90;0.30;;;24.80;34.70;;;;;;5018770;28;20034;-53
2022/09/02 02:34:47;;;;;;;0.30;0.30;;;24.80;34.70;;;;;;5020028;28;20041;-50
2022/09/02 02:37:14;;;;;;;0.20;0.20;;;24.70;34.60;;;;;;5022417;28;20029;-52
2022/09/02 02:39:41;;;;;;;0.30;0.20;;;24.80;34.70;;;;;;5023338;28;20037;-51
2022/09/02 02:42:08;;;;;;;0.38;0.30;;;24.80;34.70;;;;;;5021586;28;20036;-52
2022/09/02 02:44:35;;;;;;;0.43;0.30;;;24.70;34.60;;;;;;5018215;28;20045;-49
2022/09/02 02:47:01;;;;;;;0.50;0.40;;;24.70;34.60;;;;;;5023384;28;20125;-50
2022/09/02 02:49:27;;;;;;;0.80;0.30;;;24.70;34.60;;;;;;5025748;28;20104;-51
2022/09/02 02:51:53;;;;;;;1.58;0.40;;;24.70;34.60;;;;;;5023045;28;20183;-53
2022/09/02 02:54:21;;;;;;;0.57;0.28;;;24.70;34.60;;;;;;5022546;28;20033;-53
2022/09/02 02:56:47;;;;;;;0.63;0.28;;;24.70;34.60;;;;;;5024909;28;20022;-51
2022/09/02 02:59:13;;;;;;;0.40;0.30;;;24.70;34.60;;;;;;5026134;28;20188;-51
2022/09/02 03:01:39;;;;;;;1.67;0.30;;;24.70;34.90;;;;;;5026321;28;20026;-55
2022/09/02 03:04:06;;;;;;;0.35;0.30;;;24.70;34.60;;;;;;5024298;28;20073;-53
2022/09/02 03:06:32;;;;;;;0.32;0.20;;;24.70;34.60;;;;;;5027581;28;20049;-49
2022/09/02 03:08:59;;;;;;;0.40;0.20;;;24.70;34.60;;;;;;5026439;28;20017;-51
2022/09/02 03:11:26;;;;;;;0.65;0.30;;;24.70;34.60;;;;;;5022577;28;20132;-49
2022/09/02 03:13:53;;;;;;;0.47;0.30;;;24.70;35.30;;;;;;5025873;28;20026;-53
2022/09/02 03:16:19;;;;;;;1.02;0.52;;;24.70;34.70;;;;;;5024035;28;20030;-48
2022/09/02 03:18:46;;;;;;;0.45;0.30;;;24.70;34.70;;;;;;5025344;28;20017;-48
2022/09/02 03:21:14;;;;;;;0.20;0.20;;;24.70;34.70;;;;;;5024517;28;20046;-50
2022/09/02 03:23:42;;;;;;;0.40;0.30;;;24.70;34.70;;;;;;5025377;28;20049;-53
2022/09/02 03:26:17;;;;;;;0.40;0.30;;;24.70;34.80;;;;;;5030027;28;20033;-50
2022/09/02 03:28:44;;;;;;;0.20;0.20;;;24.70;34.80;;;;;;5024018;28;20084;-52
2022/09/02 03:31:16;;;;;;;0.43;0.30;;;24.60;34.70;;;;;;5026571;28;20046;-48
2022/09/02 03:33:43;;;;;;;0.40;0.30;;;24.60;34.70;;;;;;5025966;28;20095;-50
2022/09/02 03:36:22;;;;;;;0.45;0.30;;;24.70;34.70;;;;;;5029447;28;20021;-51
2022/09/02 03:38:51;;;;;;;0.30;0.30;;;24.60;34.70;;;;;;5027049;28;20021;-52
2022/09/02 03:41:17;;;;;;;0.45;0.30;;;24.70;34.80;;;;;;5026544;28;20041;-50
2022/09/02 03:43:44;;;;;;;0.50;0.22;;;24.60;34.70;;;;;;5026056;28;20038;-49
2022/09/02 03:46:10;;;;;;;0.40;0.40;;;24.60;34.70;;;;;;5026172;28;20022;-52
2022/09/02 03:48:36;;;;;;;0.30;0.30;;;24.60;34.80;;;;;;5025695;28;20322;-48
2022/09/02 03:51:02;;;;;;;0.57;0.30;;;24.60;34.70;;;;;;5024529;28;20022;-49
2022/09/02 03:53:28;;;;;;;0.25;0.17;;;24.60;34.70;;;;;;5026265;28;20088;-48
2022/09/02 03:56:02;;;;;;;1.52;0.32;;;24.60;34.70;;;;;;5026701;28;20445;-51
2022/09/02 03:58:28;;;;;;;0.30;0.30;;;24.60;34.70;;;;;;5021406;28;20163;-49
2022/09/02 04:00:56;;;;;;;0.63;0.38;;;24.60;34.70;;;;;;5022803;28;20505;-49
2022/09/02 04:03:23;;;;;;;0.47;0.35;;;24.60;34.70;;;;;;5024840;28;20049;-52
2022/09/02 04:05:51;;;;;;;1.58;0.30;;;24.60;34.80;;;;;;5026459;28;20061;-49
2022/09/02 04:08:18;;;;;;;0.13;0.13;;;24.60;34.90;;;;;;5025115;28;20396;-51
2022/09/02 04:10:45;;;;;;;0.20;0.20;;;24.60;34.90;;;;;;5025480;28;20045;-50
2022/09/02 04:13:11;;;;;;;0.38;0.20;;;24.60;34.90;;;;;;5027237;28;20361;-48
2022/09/02 04:15:43;;;;;;;0.15;0.15;;;24.50;34.80;;;;;;5030539;28;20060;-50
2022/09/02 04:18:10;;;;;;;0.30;0.30;;;24.60;34.90;;;;;;5031758;28;20022;-48
2022/09/02 04:20:38;;;;;;;0.30;0.20;;;24.60;34.90;;;;;;5025273;28;20036;-52
2022/09/02 04:23:05;;;;;;;0.20;0.20;;;24.50;34.80;;;;;;5028923;28;20026;-50
2022/09/02 04:25:31;;;;;;;0.20;0.20;;;24.50;34.80;;;;;;5022873;28;20046;-49
2022/09/02 04:27:57;;;;;;;1.75;0.30;;;24.60;34.80;;;;;;5023150;28;20456;-50
2022/09/02 04:30:24;;;;;;;0.30;0.30;;;24.60;35.40;;;;;;5023190;28;20099;-51
2022/09/02 04:32:51;;;;;;;1.38;0.40;;;24.50;35.40;;;;;;5023246;28;20021;-52
2022/09/02 04:35:18;;;;;;;0.95;0.30;;;24.60;34.80;;;;;;5022556;28;20477;-48
2022/09/02 04:37:46;;;;;;;1.30;0.30;;;24.50;34.80;;;;;;5024016;28;20357;-50
2022/09/02 04:40:13;;;;;;;0.63;0.30;;;24.50;34.80;;;;;;5023650;28;20045;-52
2022/09/02 04:42:39;;;;;;;0.82;0.30;;;24.50;34.80;;;;;;5024191;28;20040;-51
2022/09/02 04:45:07;;;;;;;0.75;0.30;;;24.50;34.70;;;;;;5022901;28;20069;-52
2022/09/02 04:47:34;;;;;;;0.82;0.40;;;24.50;34.80;;;;;;5024184;28;20044;-48
2022/09/02 04:50:01;;;;;;;0.57;0.35;;;24.50;34.80;;;;;;5021463;28;20040;-51
2022/09/02 04:52:26;;;;;;;0.30;0.28;;;24.50;34.80;;;;;;5023701;28;20037;-49
2022/09/02 04:54:52;;;;;;;0.32;0.20;;;24.50;34.80;;;;;;5022420;28;20509;-50
2022/09/02 04:57:19;;;;;;;0.80;0.32;;;24.50;34.70;;;;;;5024871;28;20377;-51
2022/09/02 04:59:45;;;;;;;0.50;0.20;;;24.50;34.80;;;;;;5022094;28;20472;-54
2022/09/02 05:02:11;;;;;;;0.43;0.40;;;24.50;34.80;;;;;;5024610;28;20033;-51
2022/09/02 05:04:37;;;;;;;0.55;0.30;;;24.50;34.70;;;;;;5023768;28;20108;-56
2022/09/02 05:07:08;;;;;;;0.40;0.22;;;24.50;34.70;;;;;;5024775;28;20068;-50
2022/09/02 05:09:40;;;;;;;0.38;0.30;;;24.50;34.80;;;;;;5021771;28;20889;-52
2022/09/02 05:12:06;;;;;;;0.55;0.30;;;24.50;34.80;;;;;;5024204;28;20056;-48
2022/09/02 05:14:40;;;;;;;0.50;0.30;;;24.40;34.70;;;;;;5024012;28;20033;-50
2022/09/02 05:17:08;;;;;;;0.43;0.30;;;24.50;34.80;;;;;;5019538;28;20029;-51
2022/09/02 05:19:38;;;;;;;0.40;0.20;;;24.40;34.70;;;;;;5024340;28;20124;-52
2022/09/02 05:22:03;;;;;;;0.90;0.30;;;24.50;34.80;;;;;;5024997;28;20112;-49
2022/09/02 05:24:36;;;;;;;0.40;0.20;;;24.50;34.80;;;;;;5023338;28;20056;-51
2022/09/02 05:27:06;;;;;;;1.08;0.40;;;24.50;34.80;;;;;;5022256;28;20326;-52
2022/09/02 05:29:34;;;;;;;0.30;0.20;;;24.40;34.70;;;;;;5023114;28;20064;-50
2022/09/02 05:32:00;;;;;;;0.40;0.30;;;24.40;34.70;;;;;;5019628;28;20129;-52
2022/09/02 05:34:26;;;;;;;0.32;0.30;;;24.40;34.80;;;;;;5025283;28;20030;-50
2022/09/02 05:36:55;;;;;;;0.52;0.20;;;24.40;34.80;;;;;;5022703;28;20467;-51
2022/09/02 05:39:21;;;;;;;0.93;0.35;;;24.40;34.80;;;;;;5023077;28;20100;-51
2022/09/02 05:41:48;;;;;;;1.45;0.50;;;24.40;34.70;;;;;;5021092;28;20025;-50
2022/09/02 05:44:14;;;;;;;0.50;0.32;;;24.40;34.80;;;;;;5021885;28;20380;-51
2022/09/02 05:46:40;;;;;;;1.55;0.30;;;24.40;34.80;;;;;;5020468;28;20034;-50
2022/09/02 05:49:16;;;;;;;0.93;0.30;;;24.50;34.90;;;;;;5012433;28;20068;-53
2022/09/02 05:51:49;;;;;;;1.05;0.50;;;24.40;34.80;;;;;;5023627;28;20025;-48
2022/09/02 05:54:29;;;;;;;0.50;0.30;;;24.40;34.80;;;;;;5021967;28;20056;-51
2022/09/02 05:56:59;;;;;;;0.50;0.30;;;24.40;34.80;;;;;;5022831;28;20033;-52
2022/09/02 05:59:26;;;;;;;0.43;0.32;;;24.40;34.80;;;;;;5021682;28;20034;-47
2022/09/02 06:01:55;;;;;;;0.98;0.35;;;24.40;34.80;;;;;;5024148;28;20025;-51
2022/09/02 06:04:23;;;;;;;1.20;0.40;;;24.40;34.70;;;;;;5025061;28;20353;-51
2022/09/02 06:06:49;;;;;;;1.42;0.65;;;24.40;34.80;;;;;;5024173;28;20037;-54
2022/09/02 06:09:19;;;;;;;1.33;0.50;;;24.40;34.80;;;;;;5025291;28;20060;-48
2022/09/02 06:11:48;;;;;;;1.40;0.50;;;24.40;34.80;;;;;;5020465;28;20044;-48
2022/09/02 06:14:20;;;;;;;0.75;0.40;;;24.40;34.80;;;;;;5022628;28;20411;-58
2022/09/02 06:16:53;;;;;;;0.80;0.40;;;24.40;34.80;;;;;;5023561;28;20032;-52
2022/09/02 06:19:29;;;;;;;0.60;0.32;;;24.50;34.90;;;;;;5018439;28;20036;-51
2022/09/02 06:21:56;;;;;;;1.35;0.50;;;24.50;35.00;;;;;;5037570;28;20056;-51
2022/09/02 06:24:26;;;;;;;1.50;0.50;;;24.50;35.00;;;;;;5019751;28;20045;-52
2022/09/02 06:26:53;;;;;;;1.30;0.40;;;24.50;35.00;;;;;;5029088;28;20076;-50
2022/09/02 06:29:20;;;;;;;1.67;0.47;;;24.40;35.00;;;;;;5017528;28;20041;-54
2022/09/02 06:31:48;;;;;;;1.02;0.30;;;24.40;35.60;;;;;;5020936;28;20120;-52
2022/09/02 06:34:18;;;;;;;0.60;0.30;;;24.50;35.10;;;;;;5019948;28;20171;-52
2022/09/02 06:36:46;;;;;;;1.15;0.40;;;24.50;35.10;;;;;;5019014;28;20160;-55
2022/09/02 06:39:16;;;;;;;0.55;0.30;;;24.50;35.10;;;;;;5024617;28;20022;-49
2022/09/02 06:41:45;;;;;;;0.60;0.30;;;24.50;35.20;;;;;;5021227;28;20037;-53
2022/09/02 06:44:14;;;;;;;1.40;0.43;;;24.50;35.20;;;;;;5021857;28;20052;-48
2022/09/02 06:46:46;;;;;;;0.57;0.30;;;24.50;35.30;;;;;;5023757;28;20072;-52
2022/09/02 06:49:15;;;;;;;0.65;0.40;;;24.50;35.30;;;;;;5023119;28;20029;-54
2022/09/02 06:51:45;;;;;;;0.70;0.40;;;24.50;35.30;;;;;;5028394;28;20025;-52
2022/09/02 06:54:15;;;;;;;0.95;0.30;;;24.50;35.40;;;;;;5025832;28;20463;-53
2022/09/02 06:56:42;;;;;;;0.60;0.30;;;24.50;35.40;;;;;;5021517;28;20038;-54
2022/09/02 06:59:09;;;;;;;1.15;0.30;;;24.50;35.40;;;;;;5019426;28;20030;-50
2022/09/02 07:01:41;;;;;;;1.27;0.45;;;24.50;35.40;;;;;;5024102;28;20040;-50
2022/09/02 07:06:54;;;;;;;0.30;0.30;;;24.50;35.50;;;;;;5023963;28;20044;-51
2022/09/02 07:09:29;;;;;;;0.82;0.30;;;24.50;35.40;;;;;;5022114;28;20049;-52
2022/09/02 07:12:01;;;;;;;0.47;0.30;;;24.50;35.50;;;;;;5018986;28;20053;-52
2022/09/02 07:14:28;;;;;;;1.38;0.35;;;24.50;35.50;;;;;;5022294;28;20033;-51
2022/09/02 07:16:56;;;;;;;0.55;0.30;;;24.50;35.50;;;;;;5021845;28;20022;-51
2022/09/02 07:19:26;;;;;;;1.20;0.40;;;24.50;35.40;;;;;;5021709;28;20084;-50
2022/09/02 07:21:53;;;;;;;0.80;0.40;;;24.60;35.50;;;;;;5022558;28;20030;-48
2022/09/02 07:24:21;;;;;;;0.45;0.28;;;24.60;35.50;;;;;;5022075;28;20061;-47
2022/09/02 07:26:47;;;;;;;0.68;0.30;;;24.60;35.40;;;;;;5019937;28;20029;-52
2022/09/02 07:29:15;;;;;;;0.70;0.47;;;24.60;35.50;;;;;;5021850;28;20050;-50
2022/09/02 07:31:45;;;;;;;1.98;0.32;;;24.60;35.40;;;;;;5024959;28;20029;-53
2022/09/02 07:34:14;;;;;;;1.33;0.40;;;24.60;35.40;;;;;;5019537;28;20543;-55
2022/09/02 07:36:41;;;;;;;0.90;0.30;;;24.60;35.40;;;;;;5018042;28;20049;-53
2022/09/02 07:39:09;;;;;;;1.50;0.40;;;24.60;35.40;;;;;;5026343;28;20083;-49
2022/09/02 07:41:36;;;;;;;0.60;0.43;;;24.60;35.50;;;;;;5026201;28;20030;-51
2022/09/02 07:44:03;;;;;;;0.73;0.35;;;24.60;35.70;;;;;;5015113;28;20038;-53
2022/09/02 07:46:31;;;;;;;2.45;0.40;;;24.60;35.70;;;;;;5019269;28;20030;-49
2022/09/02 07:49:03;;;;;;;1.15;0.43;;;24.60;35.60;;;;;;5021867;28;20045;-55
2022/09/02 07:51:32;;;;;;;1.17;0.40;;;24.60;35.60;;;;;;5022696;28;20039;-53
2022/09/02 07:54:00;;;;;;;0.88;0.50;;;24.70;35.60;;;;;;5019495;28;20132;-53
2022/09/02 07:56:26;;;;;;;0.90;0.43;;;24.70;35.60;;;;;;5021762;28;20057;-48
2022/09/02 07:58:52;;;;;;;2.92;0.47;;;24.70;35.60;;;;;;5023897;28;20396;-51
2022/09/02 08:01:19;;;;;;;3.22;0.40;;;24.70;35.60;;;;;;5018004;28;20053;-53
2022/09/02 08:03:45;;;;;;;0.50;0.45;;;24.70;35.60;;;;;;5029379;28;20088;-51
2022/09/02 08:06:12;;;;;;;0.43;0.30;;;24.70;35.60;;;;;;5016720;28;20109;-49
2022/09/02 08:08:39;;;;;;;0.47;0.40;;;24.70;35.60;;;;;;5024878;28;20029;-47
2022/09/02 08:11:06;;;;;;;0.32;0.30;;;24.70;35.60;;;;;;5026224;28;20544;-51
2022/09/02 08:13:34;;;;;;;1.75;0.30;;;24.70;35.60;;;;;;5024528;28;20430;-50
2022/09/02 08:16:01;;;;;;;1.90;0.40;;;24.70;35.60;;;;;;5024669;28;20029;-51
2022/09/02 08:18:27;;;;;;;0.40;0.32;;;24.70;35.60;;;;;;5026521;28;20045;-55
2022/09/02 08:20:54;;;;;;;0.68;0.52;;;24.70;35.60;;;;;;5024912;28;20026;-52
2022/09/02 08:23:20;;;;;;;2.95;0.50;;;24.80;35.60;;;;;;5027034;28;20049;-49
2022/09/02 08:25:46;;;;;;;2.50;0.63;;;24.80;35.60;;;;;;5028224;28;20033;-52
2022/09/02 08:28:12;;;;;;;1.23;0.43;;;24.80;35.60;;;;;;5026412;28;20076;-53
2022/09/02 08:30:38;;;;;;;0.80;0.40;;;24.80;35.60;;;;;;5025254;28;20349;-49
2022/09/02 08:33:04;;;;;;;1.17;0.52;;;24.80;35.50;;;;;;5024985;28;20034;-51
2022/09/02 08:35:30;;;;;;;0.90;0.30;;;24.80;35.50;;;;;;5024703;28;20037;-50
2022/09/02 08:37:59;;;;;;;1.17;0.40;;;24.80;35.50;;;;;;5024258;28;20064;-50
2022/09/02 08:40:41;;;;;;;0.68;0.50;;;24.80;35.50;;;;;;5025175;28;20112;-52
2022/09/02 08:43:26;;;;;;;2.50;0.40;;;24.80;35.50;;;;;;5026217;28;20032;-55
2022/09/02 08:45:54;;;;;;;0.55;0.40;;;24.80;35.40;;;;;;5023872;28;20037;-52
2022/09/02 08:48:38;;;;;;;0.50;0.50;;;24.80;35.40;;;;;;5022981;28;20400;-54
2022/09/02 08:51:14;;;;;;;0.50;0.30;;;24.80;35.40;;;;;;5026203;28;20041;-53
2022/09/02 08:54:10;;;;;;;0.80;0.50;;;24.80;35.40;;;;;;5024430;28;20040;-52
2022/09/02 08:56:36;;;;;;;1.10;0.40;;;24.80;35.40;;;;;;5013811;28;20084;-52
2022/09/02 08:59:03;;;;;;;1.17;0.40;;;24.90;35.40;;;;;;5024030;28;20326;-49
2022/09/02 09:01:29;;;;;;;1.63;0.57;;;24.90;35.50;;;;;;5024276;28;20033;-48
2022/09/02 09:04:39;;;;;;;0.80;0.38;;;24.80;35.50;;;;;;5025124;28;20038;-51
2022/09/02 09:07:08;;;;;;;0.95;0.40;;;24.90;35.60;;;;;;5023424;28;20029;-51
2022/09/02 09:09:48;;;;;;;0.93;0.40;;;24.90;35.70;;;;;;5024350;28;20026;-51
2022/09/02 09:12:26;;;;;;;0.80;0.47;;;24.90;35.80;;;;;;5025346;28;20353;-52
2022/09/02 09:15:18;;;;;;;0.98;0.60;;;24.90;35.90;;;;;;5024972;28;20398;-53
2022/09/02 09:17:47;;;;;;;1.30;0.55;;;24.90;36.60;;;;;;5020997;28;20033;-55
2022/09/02 09:20:26;;;;;;;0.52;0.47;;;24.90;36.10;;;;;;5024352;28;20030;-56
2022/09/02 09:22:55;;;;;;;1.45;0.55;;;25.00;36.30;;;;;;5025764;28;20029;-58
2022/09/02 09:25:27;;;;;;;0.45;0.40;;;25.00;36.50;;;;;;5023100;28;20045;-58
2022/09/02 09:27:52;;;;;;;2.35;0.50;;;25.00;37.20;;;;;;5019645;28;20105;-56
2022/09/02 09:30:18;;;;;;;2.45;0.50;;;25.00;36.70;;;;;;5024578;28;20141;-55
2022/09/02 09:32:53;;;;;;;1.08;0.63;;;25.00;36.80;;;;;;5024025;28;20088;-57
2022/09/02 09:35:20;;;;;;;1.48;0.50;;;25.00;36.80;;;;;;5023302;28;20033;-58
2022/09/02 09:37:47;;;;;;;1.25;0.60;;;25.10;37.00;;;;;;5026325;28;20025;-57
2022/09/02 09:40:22;;;;;;;2.03;0.70;;;25.10;37.20;;;;;;5024195;28;20056;-53
2022/09/02 09:43:00;;;;;;;1.70;0.50;;;25.10;37.40;;;;;;5019557;28;20044;-56
2022/09/02 09:45:26;;;;;;;0.98;0.50;;;25.10;37.50;;;;;;5024343;28;20453;-57
2022/09/02 09:48:21;;;;;;;2.40;0.52;;;25.10;37.50;;;;;;5024520;28;20037;-60
2022/09/02 09:51:08;;;;;;;2.15;0.50;;;25.20;37.50;;;;;;5024625;28;20022;-55
2022/09/02 09:53:36;;;;;;;3.17;0.60;;;25.20;37.50;;;;;;5023887;28;20498;-59
2022/09/02 09:56:17;;;;;;;0.93;0.47;;;25.20;37.50;;;;;;5023682;28;20333;-58
2022/09/02 09:58:47;;;;;;;0.98;0.60;;;25.20;37.40;;;;;;5024462;28;20052;-55
2022/09/02 10:01:16;;;;;;;2.28;0.80;;;25.20;37.40;;;;;;5020057;28;20104;-54
2022/09/02 10:03:51;;;;;;;1.38;0.55;;;25.30;37.40;;;;;;5024929;28;20034;-59
2022/09/02 10:06:24;;;;;;;0.98;0.50;;;25.30;37.40;;;;;;5026159;28;20390;-59
2022/09/02 10:09:01;;;;;;;1.48;0.50;;;25.30;37.30;;;;;;5020925;28;20045;-59
2022/09/02 10:11:29;;;;;;;0.80;0.50;;;25.30;37.30;;;;;;5021381;28;20366;-63
2022/09/02 10:14:05;;;;;;;2.63;0.60;;;25.30;37.50;;;;;;5021171;28;20108;-64
2022/09/02 10:16:44;;;;;;;0.90;0.55;;;25.40;37.90;;;;;;5023073;28;20072;-63
2022/09/02 10:19:22;;;;;;;2.65;0.75;;;25.40;37.90;;;;;;5023387;28;20029;-62
2022/09/02 10:22:11;;;;;;;1.42;0.57;;;25.50;37.80;;;;;;5023743;28;20021;-60
2022/09/02 10:24:58;;;;;;;1.73;0.80;;;25.50;37.60;;;;;;5023494;28;20034;-63
2022/09/02 10:27:59;;;;;;;1.30;0.55;;;25.60;37.50;;;;;;5022104;28;20041;-62
2022/09/02 10:30:28;;;;;;;2.88;0.50;;;25.70;37.30;;;;;;5029140;28;20076;-63
2022/09/02 10:33:00;;;;;;;0.75;0.52;;;25.90;37.10;;;;;;5020339;28;20025;-65
2022/09/02 10:35:38;;;;;;;2.45;0.80;;;26.00;37.00;;;;;;5018259;28;20025;-61
2022/09/02 10:38:11;;;;;;;5.32;0.57;;;26.10;37.10;;;;;;5021684;28;20051;-62
2022/09/02 10:40:40;;;;;;;4.22;0.70;;;26.20;37.20;;;;;;5018530;28;20030;-58
2022/09/02 10:43:23;;;;;;;2.95;0.82;;;26.30;37.20;;;;;;5023351;28;20090;-57
2022/09/02 10:45:59;;;;;;;3.35;0.80;;;26.50;37.20;;;;;;5019376;28;20041;-61
2022/09/02 10:48:37;;;;;;;2.97;0.73;;;26.60;37.00;;;;;;5015790;28;20029;-60
2022/09/02 10:51:29;;;;;;;1.52;0.60;;;26.70;36.80;;;;;;5019148;28;20022;-60
2022/09/02 10:54:20;;;;;;;2.95;0.70;;;26.80;36.80;;;;;;5026151;28;20025;-63
2022/09/02 10:57:03;;;;;;;1.85;0.80;;;26.90;36.70;;;;;;5013873;28;20457;-62
2022/09/02 10:59:40;;;;;;;1.73;0.75;;;27.00;36.80;;;;;;5022593;28;20030;-62
2022/09/02 11:02:18;;;;;;;2.50;1.33;;;27.10;36.90;;;;;;5018885;28;20060;-62
2022/09/02 11:04:55;;;;;;;1.17;0.60;;;27.20;37.00;;;;;;5017715;28;20042;-63
2022/09/02 11:07:29;;;;;;;1.20;0.70;;;27.20;37.00;;;;;;5021572;28;20091;-60
2022/09/02 11:09:58;;;;;;;;;;;27.30;37.00;;;;;;5023639;28;20084;-62
2022/09/02 11:13:01;;;;;;;2.58;0.52;;;27.40;37.10;;;;;;5019113;28;20371;-59
2022/09/02 11:15:51;;;;;;;1.83;0.63;;;27.40;37.10;;;;;;5024460;28;20029;-59
2022/09/02 11:18:35;;;;;;;0.85;0.63;;;27.50;37.10;;;;;;5019685;28;20091;-60
2022/09/02 11:21:21;;;;;;;2.10;0.50;;;27.60;36.90;;;;;;5026768;28;20469;-60
2022/09/02 11:24:11;;;;;;;1.25;0.60;;;27.70;36.80;;;;;;5024864;28;20037;-55
2022/09/02 11:27:08;;;;;;;1.48;0.68;;;27.70;36.50;;;;;;5025852;28;20116;-52
2022/09/02 11:29:57;;;;;;;0.90;0.60;;;27.70;36.30;;;;;;5025591;28;20037;-57
2022/09/02 11:32:58;;;;;;;1.10;0.68;;;27.80;36.20;;;;;;5026552;28;20360;-59
2022/09/02 11:35:37;;;;;;;2.72;0.70;;;27.90;36.10;;;;;;5019096;28;20038;-56
2022/09/02 11:38:35;;;;;;;1.90;0.90;;;28.00;35.90;;;;;;5025389;28;20364;-57
2022/09/02 11:41:06;;;;;;;1.83;0.65;;;27.90;35.60;;;;;;5020570;28;20079;-58
2022/09/02 11:43:53;;;;;;;1.77;0.85;;;28.00;35.50;;;;;;5029657;28;20025;-56
2022/09/02 11:46:45;;;;;;;2.15;0.60;;;28.10;35.40;;;;;;5016390;28;20467;-53
2022/09/02 11:49:26;;;;;;;1.75;0.80;;;28.10;35.20;;;;;;5022832;28;20026;-59
2022/09/02 11:52:16;;;;;;;1.30;0.77;;;28.10;35.00;;;;;;5021176;28;20030;-59
2022/09/02 11:54:47;;;;;;;1.75;0.60;;;28.20;34.70;;;;;;5024233;28;20113;-57
2022/09/02 11:57:19;;;;;;;1.60;0.70;;;28.20;34.50;;;;;;5019700;28;20033;-58
2022/09/02 11:59:50;;;;;;;1.60;0.70;;;28.20;34.30;;;;;;5023365;28;20371;-58
2022/09/02 12:02:42;;;;;;;1.75;0.70;;;28.30;34.20;;;;;;5023829;28;20021;-61
2022/09/02 12:05:30;;;;;;;0.70;0.70;;;28.30;34.00;;;;;;5028834;28;20042;-58
2022/09/02 12:07:56;;;;;;;0.85;0.50;;;28.30;33.90;;;;;;5023125;28;20029;-58
2022/09/02 12:10:44;;;;;;;1.73;0.68;;;28.30;34.00;;;;;;5028306;28;20143;-60
2022/09/02 12:13:31;;;;;;;0.73;0.60;;;28.30;33.90;;;;;;5022812;28;20037;-59
2022/09/02 12:16:18;;;;;;;1.20;0.55;;;28.30;33.90;;;;;;5018037;28;20069;-60
2022/09/02 12:18:45;;;;;;;2.00;0.70;;;28.40;33.90;;;;;;5026294;28;20113;-59
2022/09/02 12:21:14;;;;;;;2.75;0.60;;;28.30;33.90;;;;;;5029966;28;20483;-60
2022/09/02 12:23:55;;;;;;;0.73;0.50;;;28.40;34.00;;;;;;5022274;28;20049;-63
2022/09/02 12:26:39;;;;;;;3.40;0.70;;;28.40;34.00;;;;;;5026268;28;20033;-59
2022/09/02 12:29:30;;;;;;;0.55;0.52;;;28.40;34.00;;;;;;5018734;28;20038;-58
2022/09/02 12:31:56;;;;;;;0.50;0.50;;;28.50;34.00;;;;;;5026294;28;20037;-61
2022/09/02 12:34:22;;;;;;;2.03;0.50;;;28.50;34.00;;;;;;5028442;28;20026;-59
2022/09/02 12:37:04;;;;;;;2.25;0.68;;;28.50;33.90;;;;;;5024405;28;20066;-57
2022/09/02 12:39:34;;;;;;;1.55;0.50;;;28.50;33.80;;;;;;5026222;28;20174;-58
2022/09/02 12:42:11;;;;;;;0.63;0.50;;;28.60;33.80;;;;;;5021386;28;20129;-61
2022/09/02 12:45:18;;;;;;;1.20;0.70;;;28.60;33.70;;;;;;5022234;28;20034;-61
2022/09/02 12:47:56;;;;;;;0.57;0.47;;;28.60;33.60;;;;;;5024745;28;20040;-63
2022/09/02 12:50:35;;;;;;;1.10;0.57;;;28.60;33.50;;;;;;5027377;28;20045;-58
2022/09/02 12:53:19;;;;;;;1.30;0.50;;;28.60;33.50;;;;;;5026912;28;20029;-60
2022/09/02 12:56:11;;;;;;;0.80;0.60;;;28.60;33.30;;;;;;5024665;28;20029;-59
2022/09/02 12:58:46;;;;;;;0.80;0.50;;;28.60;33.30;;;;;;5025769;28;20418;-58
2022/09/02 13:01:44;;;;;;;1.02;0.50;;;28.70;33.30;;;;;;5023166;28;20025;-60
2022/09/02 13:04:12;;;;;;;0.70;0.50;;;28.70;33.20;;;;;;5025542;28;20033;-60
2022/09/02 13:06:47;;;;;;;0.70;0.50;;;28.70;33.20;;;;;;5023671;28;20037;-61
2022/09/02 13:09:32;;;;;;;0.98;0.57;;;28.70;33.10;;;;;;5021290;28;20026;-57
2022/09/02 13:12:29;;;;;;;1.25;0.80;;;28.70;33.00;;;;;;5031105;28;20061;-58
2022/09/02 13:15:05;;;;;;;0.60;0.57;;;28.80;33.00;;;;;;5015915;28;20384;-60